Главная страница
METAR-TAF:

METAR-TAF

Аэропорты :

Астрахань, Россия

Нариманово

широта: 46-17N, долгота: 048-00-23E, высота над уровнем моря: 0 м

Текущие метеонаблюдения

Эта сводка был подготовлена 37 минут назад, в 09:30 UTC
Ветер 4 Узел от восточный
Температура 16°C
Влажность 59%
Давление 1017 hPa
Видимость 10 км и более
Нет облачности ниже 1500 м, и нет кучево-дождевой облачности

METAR: URWA 210930Z 10002MPS CAVOK 16/08 Q1017 R09/010070 NOSIG RMK QFE764/1019

Время: 13:07 (10:07 UTC)

Прогноз

Эта сводка был подготовлена 2 часа и 7 минут назад, в 08:00 UTC
Прогноз действительный с 21-го 09 UTC до 21-го 18 UTC
Ветер 6 Узел от северо-восточный
Видимость 10 км и более
Отдельные облака на высоте 2000 фута

TAF: URWA 210800Z 2109/2118 05003MPS 9999 SCT020

Метеонаблюдения и прогнозы для более 4000 аэропортов (сводки METAR и TAF).

Имеющиеся станции представлены на карте желтыми и красными точками.

Чтобы увидеть название станции, наведите на нее мышь.

Затем щелкните, чтобы увидеть метеонаблюдения и метеопрогнозы.

Управление картой: чтобы увеличить масштаб, щелкните зеленые кнопки с черным крестиком; чтобы уменьшить масштаб, щелкните зеленую кнопку с тире; для просмотра соседних карт щелкайте зеленые стрелки.


METAR-TAF: